sensor_id;sensor_type;location;lat;lon;timestamp;temperature;humidity
7234;DHT22;3658;47.992;10.158;2022-07-15T00:01:38;23.20;52.50
7234;DHT22;3658;47.992;10.158;2022-07-15T00:04:05;23.20;52.50
7234;DHT22;3658;47.992;10.158;2022-07-15T00:06:32;23.20;52.50
7234;DHT22;3658;47.992;10.158;2022-07-15T00:09:00;23.20;52.50
7234;DHT22;3658;47.992;10.158;2022-07-15T00:11:27;23.20;52.50
7234;DHT22;3658;47.992;10.158;2022-07-15T00:13:53;23.20;52.50
7234;DHT22;3658;47.992;10.158;2022-07-15T00:16:21;23.20;52.40
7234;DHT22;3658;47.992;10.158;2022-07-15T00:18:48;23.20;52.40
7234;DHT22;3658;47.992;10.158;2022-07-15T00:21:15;23.20;52.50
7234;DHT22;3658;47.992;10.158;2022-07-15T00:23:42;23.20;52.40
7234;DHT22;3658;47.992;10.158;2022-07-15T00:26:10;23.20;52.40
7234;DHT22;3658;47.992;10.158;2022-07-15T00:28:37;23.10;52.30
7234;DHT22;3658;47.992;10.158;2022-07-15T00:31:04;23.20;52.40
7234;DHT22;3658;47.992;10.158;2022-07-15T00:33:31;23.20;52.40
7234;DHT22;3658;47.992;10.158;2022-07-15T00:35:58;23.20;52.40
7234;DHT22;3658;47.992;10.158;2022-07-15T00:38:25;23.20;52.40
7234;DHT22;3658;47.992;10.158;2022-07-15T00:40:52;23.20;52.40
7234;DHT22;3658;47.992;10.158;2022-07-15T00:43:21;23.20;52.40
7234;DHT22;3658;47.992;10.158;2022-07-15T00:45:48;23.20;52.40
7234;DHT22;3658;47.992;10.158;2022-07-15T00:48:15;23.20;52.40
7234;DHT22;3658;47.992;10.158;2022-07-15T00:50:42;23.20;52.40
7234;DHT22;3658;47.992;10.158;2022-07-15T00:53:13;23.20;52.50
7234;DHT22;3658;47.992;10.158;2022-07-15T00:55:43;23.20;52.40
7234;DHT22;3658;47.992;10.158;2022-07-15T00:58:15;23.20;52.40
7234;DHT22;3658;47.992;10.158;2022-07-15T01:00:44;23.20;52.40
7234;DHT22;3658;47.992;10.158;2022-07-15T01:03:12;23.20;52.40
7234;DHT22;3658;47.992;10.158;2022-07-15T01:05:41;23.20;52.40
7234;DHT22;3658;47.992;10.158;2022-07-15T01:08:08;23.20;52.40
7234;DHT22;3658;47.992;10.158;2022-07-15T01:10:36;23.20;52.40
7234;DHT22;3658;47.992;10.158;2022-07-15T01:13:03;23.20;52.40
7234;DHT22;3658;47.992;10.158;2022-07-15T01:15:31;23.20;52.40
7234;DHT22;3658;47.992;10.158;2022-07-15T01:18:01;23.20;52.40
7234;DHT22;3658;47.992;10.158;2022-07-15T01:20:29;23.20;52.30
7234;DHT22;3658;47.992;10.158;2022-07-15T01:22:58;23.20;52.40
7234;DHT22;3658;47.992;10.158;2022-07-15T01:25:26;23.20;52.40
7234;DHT22;3658;47.992;10.158;2022-07-15T01:27:53;23.20;52.40
7234;DHT22;3658;47.992;10.158;2022-07-15T01:30:20;23.20;52.40
7234;DHT22;3658;47.992;10.158;2022-07-15T01:32:47;23.20;52.30
7234;DHT22;3658;47.992;10.158;2022-07-15T01:35:14;23.20;52.40
7234;DHT22;3658;47.992;10.158;2022-07-15T01:37:41;23.20;52.30
7234;DHT22;3658;47.992;10.158;2022-07-15T01:40:11;23.20;52.40
7234;DHT22;3658;47.992;10.158;2022-07-15T01:42:39;23.20;52.40
7234;DHT22;3658;47.992;10.158;2022-07-15T01:45:07;23.20;52.40
7234;DHT22;3658;47.992;10.158;2022-07-15T01:47:41;23.20;52.40
7234;DHT22;3658;47.992;10.158;2022-07-15T01:50:08;23.20;52.40
7234;DHT22;3658;47.992;10.158;2022-07-15T01:52:34;23.20;52.40
7234;DHT22;3658;47.992;10.158;2022-07-15T01:55:01;23.20;52.40
7234;DHT22;3658;47.992;10.158;2022-07-15T01:57:30;23.20;52.40
7234;DHT22;3658;47.992;10.158;2022-07-15T01:59:57;23.20;52.40
7234;DHT22;3658;47.992;10.158;2022-07-15T02:02:24;23.20;52.40
7234;DHT22;3658;47.992;10.158;2022-07-15T02:04:51;23.20;52.30
7234;DHT22;3658;47.992;10.158;2022-07-15T02:07:18;23.20;52.40
7234;DHT22;3658;47.992;10.158;2022-07-15T02:09:45;23.20;52.30
7234;DHT22;3658;47.992;10.158;2022-07-15T02:12:12;23.20;52.30
7234;DHT22;3658;47.992;10.158;2022-07-15T02:14:40;23.20;52.30
7234;DHT22;3658;47.992;10.158;2022-07-15T02:17:07;23.20;52.40
7234;DHT22;3658;47.992;10.158;2022-07-15T02:19:34;23.20;53.00
7234;DHT22;3658;47.992;10.158;2022-07-15T02:22:01;23.20;52.40
7234;DHT22;3658;47.992;10.158;2022-07-15T02:24:28;23.20;52.40
7234;DHT22;3658;47.992;10.158;2022-07-15T02:26:56;23.20;52.40
7234;DHT22;3658;47.992;10.158;2022-07-15T02:29:23;23.20;52.30
7234;DHT22;3658;47.992;10.158;2022-07-15T02:31:51;23.20;52.40
7234;DHT22;3658;47.992;10.158;2022-07-15T02:34:18;23.20;52.30
7234;DHT22;3658;47.992;10.158;2022-07-15T02:36:45;23.20;52.30
7234;DHT22;3658;47.992;10.158;2022-07-15T02:39:12;23.20;52.40
7234;DHT22;3658;47.992;10.158;2022-07-15T02:41:39;23.20;52.30
7234;DHT22;3658;47.992;10.158;2022-07-15T02:44:07;23.20;52.40
7234;DHT22;3658;47.992;10.158;2022-07-15T02:46:34;23.20;52.40
7234;DHT22;3658;47.992;10.158;2022-07-15T02:49:02;23.20;52.40
7234;DHT22;3658;47.992;10.158;2022-07-15T02:51:29;23.20;52.30
7234;DHT22;3658;47.992;10.158;2022-07-15T02:53:56;23.20;52.30
7234;DHT22;3658;47.992;10.158;2022-07-15T02:56:23;23.20;52.30
7234;DHT22;3658;47.992;10.158;2022-07-15T02:58:50;23.20;52.30
7234;DHT22;3658;47.992;10.158;2022-07-15T03:01:17;23.20;52.40
7234;DHT22;3658;47.992;10.158;2022-07-15T03:03:45;23.20;52.40
7234;DHT22;3658;47.992;10.158;2022-07-15T03:06:13;23.20;52.40
7234;DHT22;3658;47.992;10.158;2022-07-15T03:08:40;23.20;52.30
7234;DHT22;3658;47.992;10.158;2022-07-15T03:11:07;23.20;52.40
7234;DHT22;3658;47.992;10.158;2022-07-15T03:13:34;23.20;52.30
7234;DHT22;3658;47.992;10.158;2022-07-15T03:16:01;23.20;52.40
7234;DHT22;3658;47.992;10.158;2022-07-15T03:18:29;23.20;52.30
7234;DHT22;3658;47.992;10.158;2022-07-15T03:20:56;23.20;52.30
7234;DHT22;3658;47.992;10.158;2022-07-15T03:23:24;23.20;52.30
7234;DHT22;3658;47.992;10.158;2022-07-15T03:25:51;23.20;52.30
7234;DHT22;3658;47.992;10.158;2022-07-15T03:28:18;23.20;52.30
7234;DHT22;3658;47.992;10.158;2022-07-15T03:30:45;23.20;52.40
7234;DHT22;3658;47.992;10.158;2022-07-15T03:33:12;23.20;52.30
7234;DHT22;3658;47.992;10.158;2022-07-15T03:35:39;23.20;52.40
7234;DHT22;3658;47.992;10.158;2022-07-15T03:38:08;23.20;52.30
7234;DHT22;3658;47.992;10.158;2022-07-15T03:40:36;23.20;52.40
7234;DHT22;3658;47.992;10.158;2022-07-15T03:43:03;23.20;52.30
7234;DHT22;3658;47.992;10.158;2022-07-15T03:45:30;23.20;52.40
7234;DHT22;3658;47.992;10.158;2022-07-15T03:47:57;23.20;52.30
7234;DHT22;3658;47.992;10.158;2022-07-15T03:50:24;23.20;52.40
7234;DHT22;3658;47.992;10.158;2022-07-15T03:52:51;23.20;52.60
7234;DHT22;3658;47.992;10.158;2022-07-15T03:55:18;23.20;52.60
7234;DHT22;3658;47.992;10.158;2022-07-15T03:57:47;23.20;52.30
7234;DHT22;3658;47.992;10.158;2022-07-15T04:00:14;23.20;52.00
7234;DHT22;3658;47.992;10.158;2022-07-15T04:02:42;23.20;51.60
7234;DHT22;3658;47.992;10.158;2022-07-15T04:05:09;23.20;50.50
7234;DHT22;3658;47.992;10.158;2022-07-15T04:07:36;23.20;49.60
7234;DHT22;3658;47.992;10.158;2022-07-15T04:10:06;23.20;49.90
7234;DHT22;3658;47.992;10.158;2022-07-15T04:12:33;23.10;50.00
7234;DHT22;3658;47.992;10.158;2022-07-15T04:15:01;23.10;50.20
7234;DHT22;3658;47.992;10.158;2022-07-15T04:17:29;23.10;49.90
7234;DHT22;3658;47.992;10.158;2022-07-15T04:19:56;23.10;50.00
7234;DHT22;3658;47.992;10.158;2022-07-15T04:22:23;23.10;50.00
7234;DHT22;3658;47.992;10.158;2022-07-15T04:24:51;23.10;50.40
7234;DHT22;3658;47.992;10.158;2022-07-15T04:27:18;23.10;50.10
7234;DHT22;3658;47.992;10.158;2022-07-15T04:29:47;23.10;50.60
7234;DHT22;3658;47.992;10.158;2022-07-15T04:32:15;23.10;50.30
7234;DHT22;3658;47.992;10.158;2022-07-15T04:34:46;23.10;50.30
7234;DHT22;3658;47.992;10.158;2022-07-15T04:37:13;23.10;50.40
7234;DHT22;3658;47.992;10.158;2022-07-15T04:39:40;23.10;50.20
7234;DHT22;3658;47.992;10.158;2022-07-15T04:42:08;23.10;50.50
7234;DHT22;3658;47.992;10.158;2022-07-15T04:44:35;23.10;51.00
7234;DHT22;3658;47.992;10.158;2022-07-15T04:47:03;23.10;50.00
7234;DHT22;3658;47.992;10.158;2022-07-15T04:49:31;23.10;50.20
7234;DHT22;3658;47.992;10.158;2022-07-15T04:52:16;23.10;50.20
7234;DHT22;3658;47.992;10.158;2022-07-15T04:54:43;23.10;50.20
7234;DHT22;3658;47.992;10.158;2022-07-15T04:57:10;23.10;50.20
7234;DHT22;3658;47.992;10.158;2022-07-15T04:59:38;23.10;49.80
7234;DHT22;3658;47.992;10.158;2022-07-15T05:02:05;23.10;49.90
7234;DHT22;3658;47.992;10.158;2022-07-15T05:04:33;23.10;49.20
7234;DHT22;3658;47.992;10.158;2022-07-15T05:07:00;23.10;49.90
7234;DHT22;3658;47.992;10.158;2022-07-15T05:09:28;23.10;49.70
7234;DHT22;3658;47.992;10.158;2022-07-15T05:11:55;23.10;49.50
7234;DHT22;3658;47.992;10.158;2022-07-15T05:14:22;23.10;49.50
7234;DHT22;3658;47.992;10.158;2022-07-15T05:16:49;23.10;49.40
7234;DHT22;3658;47.992;10.158;2022-07-15T05:19:15;23.10;48.60
7234;DHT22;3658;47.992;10.158;2022-07-15T05:21:44;23.00;48.60
7234;DHT22;3658;47.992;10.158;2022-07-15T05:24:11;23.00;47.90
7234;DHT22;3658;47.992;10.158;2022-07-15T05:26:38;23.00;48.10
7234;DHT22;3658;47.992;10.158;2022-07-15T05:29:05;23.00;47.70
7234;DHT22;3658;47.992;10.158;2022-07-15T05:31:32;23.00;48.30
7234;DHT22;3658;47.992;10.158;2022-07-15T05:33:59;23.00;48.20
7234;DHT22;3658;47.992;10.158;2022-07-15T05:36:27;23.00;48.30
7234;DHT22;3658;47.992;10.158;2022-07-15T05:38:55;23.00;47.90
7234;DHT22;3658;47.992;10.158;2022-07-15T05:41:22;23.00;47.90
7234;DHT22;3658;47.992;10.158;2022-07-15T05:43:49;23.00;48.20
7234;DHT22;3658;47.992;10.158;2022-07-15T05:46:16;23.00;47.50
7234;DHT22;3658;47.992;10.158;2022-07-15T05:48:43;23.00;48.30
7234;DHT22;3658;47.992;10.158;2022-07-15T05:51:10;23.00;48.20
7234;DHT22;3658;47.992;10.158;2022-07-15T05:53:37;23.00;47.80
7234;DHT22;3658;47.992;10.158;2022-07-15T05:56:07;23.00;47.80
7234;DHT22;3658;47.992;10.158;2022-07-15T05:58:34;23.00;46.80
7234;DHT22;3658;47.992;10.158;2022-07-15T06:01:03;23.00;47.40
7234;DHT22;3658;47.992;10.158;2022-07-15T06:03:31;23.00;46.50
7234;DHT22;3658;47.992;10.158;2022-07-15T06:05:58;23.00;47.60
7234;DHT22;3658;47.992;10.158;2022-07-15T06:08:25;23.00;47.90
7234;DHT22;3658;47.992;10.158;2022-07-15T06:10:52;23.00;47.50
7234;DHT22;3658;47.992;10.158;2022-07-15T06:13:20;23.10;47.20
7234;DHT22;3658;47.992;10.158;2022-07-15T06:15:47;23.10;47.20
7234;DHT22;3658;47.992;10.158;2022-07-15T06:18:15;23.10;47.10
7234;DHT22;3658;47.992;10.158;2022-07-15T06:20:43;23.10;47.50
7234;DHT22;3658;47.992;10.158;2022-07-15T06:23:10;23.10;47.50
7234;DHT22;3658;47.992;10.158;2022-07-15T06:25:37;23.10;47.20
7234;DHT22;3658;47.992;10.158;2022-07-15T06:28:04;23.10;47.10
7234;DHT22;3658;47.992;10.158;2022-07-15T06:30:33;23.10;47.40
7234;DHT22;3658;47.992;10.158;2022-07-15T06:33:00;23.10;48.30
7234;DHT22;3658;47.992;10.158;2022-07-15T06:35:27;23.10;48.40
7234;DHT22;3658;47.992;10.158;2022-07-15T06:37:55;23.10;48.40
7234;DHT22;3658;47.992;10.158;2022-07-15T06:40:22;23.10;48.20
7234;DHT22;3658;47.992;10.158;2022-07-15T06:42:49;23.10;48.00
7234;DHT22;3658;47.992;10.158;2022-07-15T06:45:16;23.10;47.10
7234;DHT22;3658;47.992;10.158;2022-07-15T06:47:45;23.00;46.70
7234;DHT22;3658;47.992;10.158;2022-07-15T06:50:12;23.00;46.60
7234;DHT22;3658;47.992;10.158;2022-07-15T06:52:39;23.00;47.20
7234;DHT22;3658;47.992;10.158;2022-07-15T06:55:08;23.00;47.10
7234;DHT22;3658;47.992;10.158;2022-07-15T06:57:35;23.10;47.50
7234;DHT22;3658;47.992;10.158;2022-07-15T07:00:04;23.00;47.40
7234;DHT22;3658;47.992;10.158;2022-07-15T07:02:32;23.00;47.70
7234;DHT22;3658;47.992;10.158;2022-07-15T07:05:00;23.00;47.60
7234;DHT22;3658;47.992;10.158;2022-07-15T07:07:28;23.00;47.60
7234;DHT22;3658;47.992;10.158;2022-07-15T07:09:55;23.10;47.70
7234;DHT22;3658;47.992;10.158;2022-07-15T07:12:22;23.10;47.80
7234;DHT22;3658;47.992;10.158;2022-07-15T07:14:49;23.00;47.20
7234;DHT22;3658;47.992;10.158;2022-07-15T07:17:16;23.00;47.10
7234;DHT22;3658;47.992;10.158;2022-07-15T07:19:43;23.00;47.20
7234;DHT22;3658;47.992;10.158;2022-07-15T07:22:11;23.00;47.30
7234;DHT22;3658;47.992;10.158;2022-07-15T07:24:38;23.00;47.40
7234;DHT22;3658;47.992;10.158;2022-07-15T07:27:05;23.00;47.50
7234;DHT22;3658;47.992;10.158;2022-07-15T07:29:33;23.10;47.80
7234;DHT22;3658;47.992;10.158;2022-07-15T07:32:00;23.10;47.70
7234;DHT22;3658;47.992;10.158;2022-07-15T07:34:28;23.10;47.60
7234;DHT22;3658;47.992;10.158;2022-07-15T07:36:55;23.10;47.80
7234;DHT22;3658;47.992;10.158;2022-07-15T07:39:23;23.00;47.60
7234;DHT22;3658;47.992;10.158;2022-07-15T07:41:50;23.00;47.30
7234;DHT22;3658;47.992;10.158;2022-07-15T07:44:19;23.00;47.60
7234;DHT22;3658;47.992;10.158;2022-07-15T07:46:46;23.00;47.50
7234;DHT22;3658;47.992;10.158;2022-07-15T07:49:13;23.00;47.60
7234;DHT22;3658;47.992;10.158;2022-07-15T07:51:41;23.00;47.80
7234;DHT22;3658;47.992;10.158;2022-07-15T07:54:08;23.10;47.90
7234;DHT22;3658;47.992;10.158;2022-07-15T07:56:36;23.10;47.90
7234;DHT22;3658;47.992;10.158;2022-07-15T07:59:03;23.10;48.00
7234;DHT22;3658;47.992;10.158;2022-07-15T08:01:31;23.10;48.00
7234;DHT22;3658;47.992;10.158;2022-07-15T08:03:57;23.10;47.90
7234;DHT22;3658;47.992;10.158;2022-07-15T08:06:25;23.10;48.00
7234;DHT22;3658;47.992;10.158;2022-07-15T08:08:52;23.10;48.00
7234;DHT22;3658;47.992;10.158;2022-07-15T08:11:19;23.10;47.90
7234;DHT22;3658;47.992;10.158;2022-07-15T08:13:48;23.10;47.60
7234;DHT22;3658;47.992;10.158;2022-07-15T08:16:14;23.10;47.60
7234;DHT22;3658;47.992;10.158;2022-07-15T08:18:42;23.10;47.60
7234;DHT22;3658;47.992;10.158;2022-07-15T08:21:10;23.10;47.60
7234;DHT22;3658;47.992;10.158;2022-07-15T08:23:37;23.20;47.60
7234;DHT22;3658;47.992;10.158;2022-07-15T08:26:04;23.20;47.80
7234;DHT22;3658;47.992;10.158;2022-07-15T08:28:32;23.20;47.90
7234;DHT22;3658;47.992;10.158;2022-07-15T08:31:00;23.20;48.00
7234;DHT22;3658;47.992;10.158;2022-07-15T08:33:27;23.20;48.10
7234;DHT22;3658;47.992;10.158;2022-07-15T08:35:54;23.20;48.20
7234;DHT22;3658;47.992;10.158;2022-07-15T08:38:22;23.20;48.10
7234;DHT22;3658;47.992;10.158;2022-07-15T08:40:49;23.20;48.30
7234;DHT22;3658;47.992;10.158;2022-07-15T08:43:16;23.20;48.40
7234;DHT22;3658;47.992;10.158;2022-07-15T08:45:43;23.20;48.40
7234;DHT22;3658;47.992;10.158;2022-07-15T08:48:12;23.20;48.40
7234;DHT22;3658;47.992;10.158;2022-07-15T08:50:41;23.20;48.70
7234;DHT22;3658;47.992;10.158;2022-07-15T08:53:09;23.20;48.80
7234;DHT22;3658;47.992;10.158;2022-07-15T08:55:36;23.20;48.80
7234;DHT22;3658;47.992;10.158;2022-07-15T08:58:02;23.20;48.90
7234;DHT22;3658;47.992;10.158;2022-07-15T09:00:29;23.20;49.00
7234;DHT22;3658;47.992;10.158;2022-07-15T09:02:58;23.20;49.10
7234;DHT22;3658;47.992;10.158;2022-07-15T09:05:28;23.20;49.10
7234;DHT22;3658;47.992;10.158;2022-07-15T09:08:02;23.30;49.40
7234;DHT22;3658;47.992;10.158;2022-07-15T09:10:54;23.30;49.40
7234;DHT22;3658;47.992;10.158;2022-07-15T09:13:24;23.30;49.70
7234;DHT22;3658;47.992;10.158;2022-07-15T09:15:52;23.30;49.70
7234;DHT22;3658;47.992;10.158;2022-07-15T09:18:22;23.30;50.00
7234;DHT22;3658;47.992;10.158;2022-07-15T09:20:51;23.30;50.10
7234;DHT22;3658;47.992;10.158;2022-07-15T09:23:21;23.30;50.20
7234;DHT22;3658;47.992;10.158;2022-07-15T09:25:56;23.30;50.30
7234;DHT22;3658;47.992;10.158;2022-07-15T09:28:36;23.30;50.20
7234;DHT22;3658;47.992;10.158;2022-07-15T09:31:04;23.30;50.20
7234;DHT22;3658;47.992;10.158;2022-07-15T09:33:57;23.30;50.30
7234;DHT22;3658;47.992;10.158;2022-07-15T09:36:27;23.30;50.30
7234;DHT22;3658;47.992;10.158;2022-07-15T09:38:57;23.30;50.40
7234;DHT22;3658;47.992;10.158;2022-07-15T09:41:27;23.30;50.30
7234;DHT22;3658;47.992;10.158;2022-07-15T09:43:58;23.30;50.40
7234;DHT22;3658;47.992;10.158;2022-07-15T09:46:27;23.30;50.50
7234;DHT22;3658;47.992;10.158;2022-07-15T09:48:55;23.30;50.50
7234;DHT22;3658;47.992;10.158;2022-07-15T09:51:23;23.30;50.40
7234;DHT22;3658;47.992;10.158;2022-07-15T09:53:51;23.30;50.50
7234;DHT22;3658;47.992;10.158;2022-07-15T09:56:20;23.30;50.50
7234;DHT22;3658;47.992;10.158;2022-07-15T09:58:49;23.30;50.40
7234;DHT22;3658;47.992;10.158;2022-07-15T10:01:16;23.30;50.50
7234;DHT22;3658;47.992;10.158;2022-07-15T10:03:43;23.30;50.60
7234;DHT22;3658;47.992;10.158;2022-07-15T10:06:12;23.30;50.60
7234;DHT22;3658;47.992;10.158;2022-07-15T10:08:40;23.30;50.60
7234;DHT22;3658;47.992;10.158;2022-07-15T10:11:14;23.30;50.50
7234;DHT22;3658;47.992;10.158;2022-07-15T10:14:00;23.30;50.50
7234;DHT22;3658;47.992;10.158;2022-07-15T10:17:06;23.30;50.60
7234;DHT22;3658;47.992;10.158;2022-07-15T10:19:47;23.30;50.70
7234;DHT22;3658;47.992;10.158;2022-07-15T10:22:27;23.30;50.70
7234;DHT22;3658;47.992;10.158;2022-07-15T10:25:15;23.40;50.80
7234;DHT22;3658;47.992;10.158;2022-07-15T10:28:04;23.40;50.90
7234;DHT22;3658;47.992;10.158;2022-07-15T10:30:32;23.30;50.90
7234;DHT22;3658;47.992;10.158;2022-07-15T10:33:15;23.40;50.90
7234;DHT22;3658;47.992;10.158;2022-07-15T10:35:45;23.40;50.90
7234;DHT22;3658;47.992;10.158;2022-07-15T10:38:27;23.40;50.90
7234;DHT22;3658;47.992;10.158;2022-07-15T10:41:03;23.40;50.90
7234;DHT22;3658;47.992;10.158;2022-07-15T10:43:53;23.40;51.00
7234;DHT22;3658;47.992;10.158;2022-07-15T10:46:25;23.40;51.10
7234;DHT22;3658;47.992;10.158;2022-07-15T10:49:30;23.40;51.10
7234;DHT22;3658;47.992;10.158;2022-07-15T10:52:12;23.40;51.00
7234;DHT22;3658;47.992;10.158;2022-07-15T10:54:45;23.40;51.00
7234;DHT22;3658;47.992;10.158;2022-07-15T10:57:14;23.40;51.10
7234;DHT22;3658;47.992;10.158;2022-07-15T10:59:53;23.40;50.90
7234;DHT22;3658;47.992;10.158;2022-07-15T11:02:22;23.40;51.10
7234;DHT22;3658;47.992;10.158;2022-07-15T11:04:52;23.40;51.10
7234;DHT22;3658;47.992;10.158;2022-07-15T11:07:27;23.40;51.20
7234;DHT22;3658;47.992;10.158;2022-07-15T11:09:56;23.40;51.10
7234;DHT22;3658;47.992;10.158;2022-07-15T11:15:25;23.40;51.00
7234;DHT22;3658;47.992;10.158;2022-07-15T11:17:54;23.40;50.80
7234;DHT22;3658;47.992;10.158;2022-07-15T11:20:26;23.40;50.70
7234;DHT22;3658;47.992;10.158;2022-07-15T11:22:56;23.40;50.90
7234;DHT22;3658;47.992;10.158;2022-07-15T11:25:25;23.40;50.90
7234;DHT22;3658;47.992;10.158;2022-07-15T11:28:00;23.40;51.00
7234;DHT22;3658;47.992;10.158;2022-07-15T11:30:30;23.40;51.10
7234;DHT22;3658;47.992;10.158;2022-07-15T11:32:59;23.40;51.00
7234;DHT22;3658;47.992;10.158;2022-07-15T11:35:28;23.40;50.90
7234;DHT22;3658;47.992;10.158;2022-07-15T11:38:01;23.40;50.90
7234;DHT22;3658;47.992;10.158;2022-07-15T11:40:28;23.40;50.90
7234;DHT22;3658;47.992;10.158;2022-07-15T11:43:15;23.40;50.90
7234;DHT22;3658;47.992;10.158;2022-07-15T11:45:59;23.40;50.90
7234;DHT22;3658;47.992;10.158;2022-07-15T11:48:27;23.40;50.90
7234;DHT22;3658;47.992;10.158;2022-07-15T11:50:56;23.40;50.90
7234;DHT22;3658;47.992;10.158;2022-07-15T11:53:24;23.40;50.90
7234;DHT22;3658;47.992;10.158;2022-07-15T11:55:53;23.40;50.80
7234;DHT22;3658;47.992;10.158;2022-07-15T11:58:31;23.40;50.80
7234;DHT22;3658;47.992;10.158;2022-07-15T12:01:00;23.40;50.90
7234;DHT22;3658;47.992;10.158;2022-07-15T12:03:31;23.40;50.90
7234;DHT22;3658;47.992;10.158;2022-07-15T12:06:01;23.30;50.70
7234;DHT22;3658;47.992;10.158;2022-07-15T12:08:36;23.30;50.80
7234;DHT22;3658;47.992;10.158;2022-07-15T12:11:10;23.30;50.80
7234;DHT22;3658;47.992;10.158;2022-07-15T12:13:43;23.30;50.80
7234;DHT22;3658;47.992;10.158;2022-07-15T12:16:10;23.30;50.80
7234;DHT22;3658;47.992;10.158;2022-07-15T12:18:38;23.30;50.80
7234;DHT22;3658;47.992;10.158;2022-07-15T12:21:07;23.30;50.80
7234;DHT22;3658;47.992;10.158;2022-07-15T12:23:34;23.30;50.80
7234;DHT22;3658;47.992;10.158;2022-07-15T12:26:03;23.30;50.80
7234;DHT22;3658;47.992;10.158;2022-07-15T12:28:30;23.30;50.80
7234;DHT22;3658;47.992;10.158;2022-07-15T12:30:57;23.30;50.80
7234;DHT22;3658;47.992;10.158;2022-07-15T12:33:25;23.30;50.80
7234;DHT22;3658;47.992;10.158;2022-07-15T12:36:15;23.30;50.80
7234;DHT22;3658;47.992;10.158;2022-07-15T12:38:43;23.30;50.80
7234;DHT22;3658;47.992;10.158;2022-07-15T12:41:22;23.30;50.80
7234;DHT22;3658;47.992;10.158;2022-07-15T12:43:52;23.40;50.90
7234;DHT22;3658;47.992;10.158;2022-07-15T12:46:19;23.40;50.90
7234;DHT22;3658;47.992;10.158;2022-07-15T12:48:47;23.30;50.70
7234;DHT22;3658;47.992;10.158;2022-07-15T12:51:17;23.30;50.80
7234;DHT22;3658;47.992;10.158;2022-07-15T12:53:50;23.30;50.70
7234;DHT22;3658;47.992;10.158;2022-07-15T12:56:18;23.30;50.80
7234;DHT22;3658;47.992;10.158;2022-07-15T12:58:49;23.30;50.80
7234;DHT22;3658;47.992;10.158;2022-07-15T13:01:16;23.30;50.80
7234;DHT22;3658;47.992;10.158;2022-07-15T13:03:43;23.30;50.80
7234;DHT22;3658;47.992;10.158;2022-07-15T13:06:11;23.30;50.80
7234;DHT22;3658;47.992;10.158;2022-07-15T13:08:41;23.30;50.70
7234;DHT22;3658;47.992;10.158;2022-07-15T13:11:09;23.30;50.70
7234;DHT22;3658;47.992;10.158;2022-07-15T13:13:38;23.40;50.80
7234;DHT22;3658;47.992;10.158;2022-07-15T13:16:05;23.30;50.70
7234;DHT22;3658;47.992;10.158;2022-07-15T13:18:33;23.30;50.70
7234;DHT22;3658;47.992;10.158;2022-07-15T13:21:01;23.30;50.70
7234;DHT22;3658;47.992;10.158;2022-07-15T13:23:28;23.30;50.80
7234;DHT22;3658;47.992;10.158;2022-07-15T13:25:57;23.30;50.80
7234;DHT22;3658;47.992;10.158;2022-07-15T13:28:24;23.30;50.80
7234;DHT22;3658;47.992;10.158;2022-07-15T13:30:52;23.40;50.90
7234;DHT22;3658;47.992;10.158;2022-07-15T13:33:19;23.40;50.80
7234;DHT22;3658;47.992;10.158;2022-07-15T13:35:46;23.40;50.90
7234;DHT22;3658;47.992;10.158;2022-07-15T13:38:14;23.30;50.80
7234;DHT22;3658;47.992;10.158;2022-07-15T13:40:41;23.30;50.70
7234;DHT22;3658;47.992;10.158;2022-07-15T13:43:09;23.30;50.80
7234;DHT22;3658;47.992;10.158;2022-07-15T13:45:36;23.40;50.90
7234;DHT22;3658;47.992;10.158;2022-07-15T13:48:04;23.40;50.90
7234;DHT22;3658;47.992;10.158;2022-07-15T13:50:31;23.40;50.80
7234;DHT22;3658;47.992;10.158;2022-07-15T13:53:15;23.30;50.80
7234;DHT22;3658;47.992;10.158;2022-07-15T13:55:42;23.30;50.80
7234;DHT22;3658;47.992;10.158;2022-07-15T13:58:10;23.40;50.90
7234;DHT22;3658;47.992;10.158;2022-07-15T14:00:38;23.30;50.80
7234;DHT22;3658;47.992;10.158;2022-07-15T14:03:07;23.40;50.90
7234;DHT22;3658;47.992;10.158;2022-07-15T14:05:35;23.40;50.90
7234;DHT22;3658;47.992;10.158;2022-07-15T14:08:02;23.40;50.90
7234;DHT22;3658;47.992;10.158;2022-07-15T14:10:36;23.40;50.90
7234;DHT22;3658;47.992;10.158;2022-07-15T14:13:03;23.40;50.90
7234;DHT22;3658;47.992;10.158;2022-07-15T14:15:32;23.40;50.90
7234;DHT22;3658;47.992;10.158;2022-07-15T14:17:59;23.30;50.90
7234;DHT22;3658;47.992;10.158;2022-07-15T14:20:26;23.40;50.90
7234;DHT22;3658;47.992;10.158;2022-07-15T14:22:54;23.30;50.90
7234;DHT22;3658;47.992;10.158;2022-07-15T14:25:21;23.40;50.90
7234;DHT22;3658;47.992;10.158;2022-07-15T14:27:48;23.30;50.90
7234;DHT22;3658;47.992;10.158;2022-07-15T14:30:15;23.30;50.90
7234;DHT22;3658;47.992;10.158;2022-07-15T14:32:44;23.30;50.90
7234;DHT22;3658;47.992;10.158;2022-07-15T14:35:10;23.30;50.90
7234;DHT22;3658;47.992;10.158;2022-07-15T14:37:37;23.30;50.90
7234;DHT22;3658;47.992;10.158;2022-07-15T14:40:06;23.30;50.90
7234;DHT22;3658;47.992;10.158;2022-07-15T14:42:34;23.30;50.90
7234;DHT22;3658;47.992;10.158;2022-07-15T14:45:01;23.30;50.80
7234;DHT22;3658;47.992;10.158;2022-07-15T14:47:29;23.40;51.00
7234;DHT22;3658;47.992;10.158;2022-07-15T14:49:58;23.40;50.90
7234;DHT22;3658;47.992;10.158;2022-07-15T14:52:25;23.40;50.90
7234;DHT22;3658;47.992;10.158;2022-07-15T14:54:52;23.40;51.00
7234;DHT22;3658;47.992;10.158;2022-07-15T14:57:19;23.40;50.90
7234;DHT22;3658;47.992;10.158;2022-07-15T14:59:46;23.40;51.00
7234;DHT22;3658;47.992;10.158;2022-07-15T15:02:13;23.40;51.00
7234;DHT22;3658;47.992;10.158;2022-07-15T15:04:40;23.40;51.00
7234;DHT22;3658;47.992;10.158;2022-07-15T15:07:08;23.40;51.00
7234;DHT22;3658;47.992;10.158;2022-07-15T15:09:35;23.40;51.00
7234;DHT22;3658;47.992;10.158;2022-07-15T15:12:02;23.40;50.90
7234;DHT22;3658;47.992;10.158;2022-07-15T15:14:29;23.40;51.00
7234;DHT22;3658;47.992;10.158;2022-07-15T15:16:56;23.40;51.00
7234;DHT22;3658;47.992;10.158;2022-07-15T15:19:23;23.40;51.00
7234;DHT22;3658;47.992;10.158;2022-07-15T15:21:50;23.40;51.60
7234;DHT22;3658;47.992;10.158;2022-07-15T15:24:19;23.40;51.00
7234;DHT22;3658;47.992;10.158;2022-07-15T15:26:46;23.40;51.00
7234;DHT22;3658;47.992;10.158;2022-07-15T15:29:15;23.40;51.00
7234;DHT22;3658;47.992;10.158;2022-07-15T15:31:42;23.40;51.00
7234;DHT22;3658;47.992;10.158;2022-07-15T15:34:09;23.40;51.00
7234;DHT22;3658;47.992;10.158;2022-07-15T15:36:36;23.40;51.00
7234;DHT22;3658;47.992;10.158;2022-07-15T15:39:03;23.40;51.00
7234;DHT22;3658;47.992;10.158;2022-07-15T15:41:31;23.40;51.00
7234;DHT22;3658;47.992;10.158;2022-07-15T15:43:58;23.40;51.00
7234;DHT22;3658;47.992;10.158;2022-07-15T15:46:26;23.40;51.00
7234;DHT22;3658;47.992;10.158;2022-07-15T15:48:53;23.40;51.00
7234;DHT22;3658;47.992;10.158;2022-07-15T15:51:20;23.40;51.00
7234;DHT22;3658;47.992;10.158;2022-07-15T15:53:47;23.40;51.00
7234;DHT22;3658;47.992;10.158;2022-07-15T15:56:14;23.40;51.00
7234;DHT22;3658;47.992;10.158;2022-07-15T15:58:42;23.40;51.00